Anawalt, West Virginia
Current Conditions -  °F | °C
As of 1:52 AM on Saturday 25 Oct 2014 (Local Time) from KBLF Reporting Station
Clear Clear  
Wind Chill:   Ceiling: Unl
Heat Index:   Visibility: 10mi
Dew Point:   Wind: 7mph
Humidity: 80%   Direction: 250°WSW
Pressure: 30.08"   Gusts: NA
Location:  37.34°N, 81.44°W
Report Text: KBLF 250552Z AUTO 25006KT 10SM CLR 06/03 A3008 RMK AO2 SLP176 T00610028 10100 20050 57001
Loading
Personal Weather Stations






























Interactive Weather Map
Tropical Storm Tracking
New forecast layout! Learn more

10-Day Weather Forecast

Advertisements
Track Severe Weather on mobile